Aérodrome :







RETROUVEZ-NOUS SUR...

 
LOGIN :

S'inscrire | Disclaimer

   EN    FR    IT 

 









Légende :    VFR   VFR Marginal   IFR   IFR Intensif   IFR Très Intensif
Visi : 
Plafond : 
>= 8 km
>= 3000ft
5 à 8 km
1000 à 3000 ft
1500m à 5 km
500 à 1000 ft
800 à 1500m
200 à 500 ft
< 800m
< 200 ft
Symboles :   Orages  Brouillard  Fortes neiges  Fortes précipitations  Vent > 20 kt






- Altitude de l'aérodrome : 166 ft
- Code IATA : YCX


CYCX - Gagetown Heliport

DERNIER METAR :
  • 241700Z 35003KT 280V350 15SM FEW012 04/M01 A2996 RMK CU1 DA-1057FT SLP150

METARs EXPIRÉS :
  • 241600Z 28004KT 15SM FEW012 02/M01 A3000 RMK SF1 DA-1434FT SLP162
  • 241518Z 01004KT 15SM SCT008 00/M01 A3001 RMK SF4 DA-1674FT SLP164
  • 241500Z 35003KT 6SM BR OVC006 M00/M01 A3001 RMK ST8 DA-1686FT SUN DIMLY VISBL SLP166

TAF TAF CYCX
Valide du 24 à 18h jusqu'au 25 à 06h UTC


241730Z 2418/2506 VRB03KT P6SM SKC
BECMG 2419/2421 20007KT
FM250400 VRB03KT P6SM SCT200
TEMPO 2504/2506 3SM BR RMK NXT FCST BY 250000Z



MET'MAP, la Météo Aéronautique d'un coup d'oeil ! - Copyright ORBIFLY Décembre 2007 - Disclaimer

ORBIFLY MET'MAP TEAM :

Programmation & Développement : Alexandra Zaïnal
Sur une idée originale de : Baudouin d'Aumeries
Assistance à la programmation : Marc-Olivier Méhu
Soutien technique & logistique : Manuel Goepfert

Contact : metmap@orbifly.com




SOURCES & CREDITS :

   NOAA